Terminal Aerodrome Forecast
Issued by NWS

Home | Current Version | Previous Version | Text Only | Print | Product List | Glossary Off
Versions: 1 2 3 4 5 6 7 8 9 10 11 12 13 14 15 16 17 18

087
FTUS43 KIWX 251139
TAFSBN
TAF
KSBN 251139Z 2512/2612 25020G35KT P6SM BKN021
      TEMPO 2512/2516 BKN015
     FM251600 25021G30KT P6SM SCT020
     FM251900 24019G28KT P6SM FEW020
     FM260000 23010KT P6SM FEW250
     FM260900 23005KT P6SM FEW250=

USA.gov is the U.S. government's official web portal to all federal, state and local government web resources and services.